sensor_id;sensor_type;location;lat;lon;timestamp;P1;durP1;ratioP1;P2;durP2;ratioP2
40022;SDS011;25713;-35.352;149.036;2023-02-01T00:00:30;2.67;;;2.33;;
40022;SDS011;25713;-35.352;149.036;2023-02-01T00:03:00;3.45;;;2.40;;
40022;SDS011;25713;-35.352;149.036;2023-02-01T00:05:29;3.35;;;2.55;;
40022;SDS011;25713;-35.352;149.036;2023-02-01T00:07:59;4.10;;;2.50;;
40022;SDS011;25713;-35.352;149.036;2023-02-01T00:10:28;3.42;;;2.58;;
40022;SDS011;25713;-35.352;149.036;2023-02-01T00:12:57;4.75;;;2.65;;
40022;SDS011;25713;-35.352;149.036;2023-02-01T00:15:30;2.50;;;2.30;;
40022;SDS011;25713;-35.352;149.036;2023-02-01T00:18:00;3.20;;;2.35;;
40022;SDS011;25713;-35.352;149.036;2023-02-01T00:20:29;2.70;;;2.13;;
40022;SDS011;25713;-35.352;149.036;2023-02-01T00:22:58;4.25;;;2.70;;
40022;SDS011;25713;-35.352;149.036;2023-02-01T00:25:28;2.72;;;2.45;;
40022;SDS011;25713;-35.352;149.036;2023-02-01T00:27:59;7.00;;;2.55;;
40022;SDS011;25713;-35.352;149.036;2023-02-01T00:30:31;2.67;;;2.38;;
40022;SDS011;25713;-35.352;149.036;2023-02-01T00:33:00;2.67;;;2.22;;
40022;SDS011;25713;-35.352;149.036;2023-02-01T00:35:30;5.45;;;2.25;;
40022;SDS011;25713;-35.352;149.036;2023-02-01T00:38:01;2.92;;;2.50;;
40022;SDS011;25713;-35.352;149.036;2023-02-01T00:40:30;2.63;;;2.38;;
40022;SDS011;25713;-35.352;149.036;2023-02-01T00:43:00;3.92;;;2.63;;
40022;SDS011;25713;-35.352;149.036;2023-02-01T00:45:32;3.80;;;2.47;;
40022;SDS011;25713;-35.352;149.036;2023-02-01T00:48:03;3.10;;;2.50;;
40022;SDS011;25713;-35.352;149.036;2023-02-01T00:50:32;3.50;;;2.22;;
40022;SDS011;25713;-35.352;149.036;2023-02-01T00:53:02;3.55;;;2.47;;
40022;SDS011;25713;-35.352;149.036;2023-02-01T00:55:31;3.03;;;2.20;;
40022;SDS011;25713;-35.352;149.036;2023-02-01T00:58:01;2.65;;;2.33;;
40022;SDS011;25713;-35.352;149.036;2023-02-01T01:00:33;2.33;;;2.10;;
40022;SDS011;25713;-35.352;149.036;2023-02-01T01:03:02;2.58;;;2.17;;
40022;SDS011;25713;-35.352;149.036;2023-02-01T01:05:32;2.20;;;2.00;;
40022;SDS011;25713;-35.352;149.036;2023-02-01T01:08:01;4.10;;;2.03;;
40022;SDS011;25713;-35.352;149.036;2023-02-01T01:10:31;2.72;;;2.10;;
40022;SDS011;25713;-35.352;149.036;2023-02-01T01:13:01;2.08;;;1.88;;
40022;SDS011;25713;-35.352;149.036;2023-02-01T01:15:34;2.20;;;2.00;;
40022;SDS011;25713;-35.352;149.036;2023-02-01T01:18:05;2.42;;;1.90;;
40022;SDS011;25713;-35.352;149.036;2023-02-01T01:20:35;2.10;;;1.90;;
40022;SDS011;25713;-35.352;149.036;2023-02-01T01:23:06;2.05;;;1.90;;
40022;SDS011;25713;-35.352;149.036;2023-02-01T01:25:37;2.33;;;1.85;;
40022;SDS011;25713;-35.352;149.036;2023-02-01T01:28:07;2.88;;;2.08;;
40022;SDS011;25713;-35.352;149.036;2023-02-01T01:30:40;3.15;;;1.95;;
40022;SDS011;25713;-35.352;149.036;2023-02-01T01:33:09;1.45;;;1.35;;
40022;SDS011;25713;-35.352;149.036;2023-02-01T01:35:39;1.80;;;1.70;;
40022;SDS011;25713;-35.352;149.036;2023-02-01T01:38:09;3.45;;;1.58;;
40022;SDS011;25713;-35.352;149.036;2023-02-01T01:40:38;1.88;;;1.70;;
40022;SDS011;25713;-35.352;149.036;2023-02-01T01:43:13;4.10;;;1.67;;
40022;SDS011;25713;-35.352;149.036;2023-02-01T01:48:17;2.10;;;1.50;;
40022;SDS011;25713;-35.352;149.036;2023-02-01T01:50:50;1.92;;;1.40;;
40022;SDS011;25713;-35.352;149.036;2023-02-01T01:53:24;1.40;;;1.30;;
40022;SDS011;25713;-35.352;149.036;2023-02-01T01:55:57;2.15;;;1.40;;
40022;SDS011;25713;-35.352;149.036;2023-02-01T01:58:28;2.50;;;1.40;;
40022;SDS011;25713;-35.352;149.036;2023-02-01T02:01:02;1.20;;;1.10;;
40022;SDS011;25713;-35.352;149.036;2023-02-01T02:03:33;2.47;;;1.40;;
40022;SDS011;25713;-35.352;149.036;2023-02-01T02:06:05;1.73;;;1.25;;
40022;SDS011;25713;-35.352;149.036;2023-02-01T02:08:43;1.80;;;1.13;;
40022;SDS011;25713;-35.352;149.036;2023-02-01T02:11:13;5.03;;;1.23;;
40022;SDS011;25713;-35.352;149.036;2023-02-01T02:13:45;3.08;;;1.17;;
40022;SDS011;25713;-35.352;149.036;2023-02-01T02:19:22;1.25;;;1.10;;
40022;SDS011;25713;-35.352;149.036;2023-02-01T02:25:21;1.73;;;1.05;;
40022;SDS011;25713;-35.352;149.036;2023-02-01T02:28:19;1.63;;;0.98;;
40022;SDS011;25713;-35.352;149.036;2023-02-01T02:31:12;3.10;;;1.02;;
40022;SDS011;25713;-35.352;149.036;2023-02-01T02:33:56;1.55;;;1.00;;
40022;SDS011;25713;-35.352;149.036;2023-02-01T02:36:35;1.60;;;1.00;;
40022;SDS011;25713;-35.352;149.036;2023-02-01T02:39:13;1.30;;;0.90;;
40022;SDS011;25713;-35.352;149.036;2023-02-01T02:41:52;1.58;;;1.05;;
40022;SDS011;25713;-35.352;149.036;2023-02-01T02:44:27;1.65;;;1.00;;
40022;SDS011;25713;-35.352;149.036;2023-02-01T02:47:03;1.08;;;0.98;;
40022;SDS011;25713;-35.352;149.036;2023-02-01T02:49:42;1.13;;;0.90;;
40022;SDS011;25713;-35.352;149.036;2023-02-01T02:52:17;1.00;;;0.90;;
40022;SDS011;25713;-35.352;149.036;2023-02-01T02:54:48;1.63;;;0.90;;
40022;SDS011;25713;-35.352;149.036;2023-02-01T02:57:22;1.45;;;0.90;;
40022;SDS011;25713;-35.352;149.036;2023-02-01T02:59:54;2.13;;;0.93;;
40022;SDS011;25713;-35.352;149.036;2023-02-01T03:02:26;1.45;;;1.00;;
40022;SDS011;25713;-35.352;149.036;2023-02-01T03:05:00;2.53;;;1.10;;
40022;SDS011;25713;-35.352;149.036;2023-02-01T03:10:29;2.55;;;1.00;;
40022;SDS011;25713;-35.352;149.036;2023-02-01T03:13:09;0.82;;;0.82;;
40022;SDS011;25713;-35.352;149.036;2023-02-01T03:15:44;1.00;;;0.90;;
40022;SDS011;25713;-35.352;149.036;2023-02-01T03:18:20;0.73;;;0.73;;
40022;SDS011;25713;-35.352;149.036;2023-02-01T03:20:58;2.15;;;0.90;;
40022;SDS011;25713;-35.352;149.036;2023-02-01T03:23:32;1.48;;;1.02;;
40022;SDS011;25713;-35.352;149.036;2023-02-01T03:28:33;1.42;;;1.05;;
40022;SDS011;25713;-35.352;149.036;2023-02-01T03:31:04;1.20;;;1.10;;
40022;SDS011;25713;-35.352;149.036;2023-02-01T03:33:34;3.20;;;1.10;;
40022;SDS011;25713;-35.352;149.036;2023-02-01T03:36:08;2.90;;;1.00;;
40022;SDS011;25713;-35.352;149.036;2023-02-01T03:38:54;1.27;;;0.93;;
40022;SDS011;25713;-35.352;149.036;2023-02-01T03:41:30;1.20;;;1.00;;
40022;SDS011;25713;-35.352;149.036;2023-02-01T03:44:06;1.00;;;0.90;;
40022;SDS011;25713;-35.352;149.036;2023-02-01T03:46:41;1.90;;;1.10;;
40022;SDS011;25713;-35.352;149.036;2023-02-01T03:49:16;1.20;;;1.10;;
40022;SDS011;25713;-35.352;149.036;2023-02-01T03:51:52;1.58;;;1.30;;
40022;SDS011;25713;-35.352;149.036;2023-02-01T03:54:24;1.10;;;1.00;;
40022;SDS011;25713;-35.352;149.036;2023-02-01T03:56:55;2.05;;;1.15;;
40022;SDS011;25713;-35.352;149.036;2023-02-01T04:01:55;1.40;;;1.10;;
40022;SDS011;25713;-35.352;149.036;2023-02-01T04:04:24;1.42;;;1.33;;
40022;SDS011;25713;-35.352;149.036;2023-02-01T04:06:58;2.60;;;1.20;;
40022;SDS011;25713;-35.352;149.036;2023-02-01T04:09:27;1.20;;;1.10;;
40022;SDS011;25713;-35.352;149.036;2023-02-01T04:11:57;1.17;;;1.10;;
40022;SDS011;25713;-35.352;149.036;2023-02-01T04:14:26;1.60;;;1.48;;
40022;SDS011;25713;-35.352;149.036;2023-02-01T04:16:55;2.65;;;1.40;;
40022;SDS011;25713;-35.352;149.036;2023-02-01T04:19:25;1.55;;;1.30;;
40022;SDS011;25713;-35.352;149.036;2023-02-01T04:21:54;2.67;;;1.50;;
40022;SDS011;25713;-35.352;149.036;2023-02-01T04:24:26;2.45;;;1.40;;
40022;SDS011;25713;-35.352;149.036;2023-02-01T04:26:55;1.55;;;1.30;;
40022;SDS011;25713;-35.352;149.036;2023-02-01T04:29:25;1.70;;;1.40;;
40022;SDS011;25713;-35.352;149.036;2023-02-01T04:31:54;1.50;;;1.40;;
40022;SDS011;25713;-35.352;149.036;2023-02-01T04:34:23;1.55;;;1.30;;
40022;SDS011;25713;-35.352;149.036;2023-02-01T04:36:53;2.65;;;1.48;;
40022;SDS011;25713;-35.352;149.036;2023-02-01T04:39:24;1.58;;;1.48;;
40022;SDS011;25713;-35.352;149.036;2023-02-01T04:41:53;1.80;;;1.55;;
40022;SDS011;25713;-35.352;149.036;2023-02-01T04:44:23;4.55;;;1.80;;
40022;SDS011;25713;-35.352;149.036;2023-02-01T04:46:53;1.73;;;1.60;;
40022;SDS011;25713;-35.352;149.036;2023-02-01T04:49:22;1.70;;;1.60;;
40022;SDS011;25713;-35.352;149.036;2023-02-01T04:51:52;1.60;;;1.50;;
40022;SDS011;25713;-35.352;149.036;2023-02-01T04:54:23;1.80;;;1.70;;
40022;SDS011;25713;-35.352;149.036;2023-02-01T04:56:52;1.87;;;1.70;;
40022;SDS011;25713;-35.352;149.036;2023-02-01T04:59:22;4.07;;;1.70;;
40022;SDS011;25713;-35.352;149.036;2023-02-01T05:01:51;3.40;;;1.95;;
40022;SDS011;25713;-35.352;149.036;2023-02-01T05:04:21;1.88;;;1.77;;
40022;SDS011;25713;-35.352;149.036;2023-02-01T05:06:50;1.75;;;1.65;;
40022;SDS011;25713;-35.352;149.036;2023-02-01T05:09:19;1.90;;;1.70;;
40022;SDS011;25713;-35.352;149.036;2023-02-01T05:11:52;2.17;;;1.73;;
40022;SDS011;25713;-35.352;149.036;2023-02-01T05:14:21;2.63;;;1.42;;
40022;SDS011;25713;-35.352;149.036;2023-02-01T05:16:51;1.77;;;1.67;;
40022;SDS011;25713;-35.352;149.036;2023-02-01T05:19:21;1.65;;;1.42;;
40022;SDS011;25713;-35.352;149.036;2023-02-01T05:21:50;2.80;;;1.60;;
40022;SDS011;25713;-35.352;149.036;2023-02-01T05:24:20;2.55;;;1.60;;
40022;SDS011;25713;-35.352;149.036;2023-02-01T05:26:52;1.70;;;1.60;;
40022;SDS011;25713;-35.352;149.036;2023-02-01T05:29:22;1.63;;;1.45;;
40022;SDS011;25713;-35.352;149.036;2023-02-01T05:31:54;1.48;;;1.38;;
40022;SDS011;25713;-35.352;149.036;2023-02-01T05:34:25;2.10;;;1.58;;
40022;SDS011;25713;-35.352;149.036;2023-02-01T05:36:55;1.63;;;1.35;;
40022;SDS011;25713;-35.352;149.036;2023-02-01T05:39:24;1.52;;;1.42;;
40022;SDS011;25713;-35.352;149.036;2023-02-01T05:41:56;1.48;;;1.38;;
40022;SDS011;25713;-35.352;149.036;2023-02-01T05:44:25;2.33;;;1.30;;
40022;SDS011;25713;-35.352;149.036;2023-02-01T05:46:54;1.45;;;1.35;;
40022;SDS011;25713;-35.352;149.036;2023-02-01T05:49:24;1.38;;;1.27;;
40022;SDS011;25713;-35.352;149.036;2023-02-01T05:51:54;2.53;;;1.10;;
40022;SDS011;25713;-35.352;149.036;2023-02-01T05:54:23;3.03;;;1.50;;
40022;SDS011;25713;-35.352;149.036;2023-02-01T05:56:55;2.00;;;1.35;;
40022;SDS011;25713;-35.352;149.036;2023-02-01T05:59:27;1.55;;;1.38;;
40022;SDS011;25713;-35.352;149.036;2023-02-01T06:01:57;1.42;;;1.33;;
40022;SDS011;25713;-35.352;149.036;2023-02-01T06:04:26;1.30;;;1.20;;
40022;SDS011;25713;-35.352;149.036;2023-02-01T06:06:55;1.30;;;1.10;;
40022;SDS011;25713;-35.352;149.036;2023-02-01T06:09:25;1.20;;;1.10;;
40022;SDS011;25713;-35.352;149.036;2023-02-01T06:11:54;1.30;;;1.20;;
40022;SDS011;25713;-35.352;149.036;2023-02-01T06:14:26;2.95;;;1.30;;
40022;SDS011;25713;-35.352;149.036;2023-02-01T06:16:55;1.73;;;1.30;;
40022;SDS011;25713;-35.352;149.036;2023-02-01T06:19:25;2.70;;;1.00;;
40022;SDS011;25713;-35.352;149.036;2023-02-01T06:21:54;1.23;;;1.10;;
40022;SDS011;25713;-35.352;149.036;2023-02-01T06:24:23;1.00;;;1.00;;
40022;SDS011;25713;-35.352;149.036;2023-02-01T06:26:53;1.40;;;1.30;;
40022;SDS011;25713;-35.352;149.036;2023-02-01T06:29:22;1.90;;;1.17;;
40022;SDS011;25713;-35.352;149.036;2023-02-01T06:31:54;1.27;;;1.17;;
40022;SDS011;25713;-35.352;149.036;2023-02-01T06:34:23;1.52;;;1.08;;
40022;SDS011;25713;-35.352;149.036;2023-02-01T06:36:53;2.28;;;1.15;;
40022;SDS011;25713;-35.352;149.036;2023-02-01T06:39:22;1.60;;;1.13;;
40022;SDS011;25713;-35.352;149.036;2023-02-01T06:41:51;1.30;;;1.17;;
40022;SDS011;25713;-35.352;149.036;2023-02-01T06:44:21;1.90;;;1.27;;
40022;SDS011;25713;-35.352;149.036;2023-02-01T06:46:53;1.20;;;1.10;;
40022;SDS011;25713;-35.352;149.036;2023-02-01T06:49:23;1.75;;;1.20;;
40022;SDS011;25713;-35.352;149.036;2023-02-01T06:51:52;1.40;;;1.00;;
40022;SDS011;25713;-35.352;149.036;2023-02-01T06:54:22;2.50;;;1.10;;
40022;SDS011;25713;-35.352;149.036;2023-02-01T06:56:51;1.98;;;1.08;;
40022;SDS011;25713;-35.352;149.036;2023-02-01T06:59:21;3.05;;;0.90;;
40022;SDS011;25713;-35.352;149.036;2023-02-01T07:01:53;1.15;;;1.05;;
40022;SDS011;25713;-35.352;149.036;2023-02-01T07:04:22;1.10;;;1.00;;
40022;SDS011;25713;-35.352;149.036;2023-02-01T07:06:51;1.80;;;1.15;;
40022;SDS011;25713;-35.352;149.036;2023-02-01T07:09:21;1.83;;;1.05;;
40022;SDS011;25713;-35.352;149.036;2023-02-01T07:11:50;1.30;;;1.20;;
40022;SDS011;25713;-35.352;149.036;2023-02-01T07:14:20;1.33;;;1.10;;
40022;SDS011;25713;-35.352;149.036;2023-02-01T07:16:49;1.33;;;1.17;;
40022;SDS011;25713;-35.352;149.036;2023-02-01T07:19:21;2.80;;;1.10;;
40022;SDS011;25713;-35.352;149.036;2023-02-01T07:21:50;3.10;;;1.20;;
40022;SDS011;25713;-35.352;149.036;2023-02-01T07:24:20;1.25;;;1.15;;
40022;SDS011;25713;-35.352;149.036;2023-02-01T07:26:49;2.15;;;1.02;;
40022;SDS011;25713;-35.352;149.036;2023-02-01T07:29:19;1.92;;;1.17;;
40022;SDS011;25713;-35.352;149.036;2023-02-01T07:31:48;1.10;;;1.00;;
40022;SDS011;25713;-35.352;149.036;2023-02-01T07:34:19;1.92;;;1.05;;
40022;SDS011;25713;-35.352;149.036;2023-02-01T07:36:49;2.45;;;1.10;;
40022;SDS011;25713;-35.352;149.036;2023-02-01T07:39:18;1.17;;;1.08;;
40022;SDS011;25713;-35.352;149.036;2023-02-01T07:41:48;3.15;;;1.00;;
40022;SDS011;25713;-35.352;149.036;2023-02-01T07:44:18;1.17;;;1.00;;
40022;SDS011;25713;-35.352;149.036;2023-02-01T07:46:47;2.45;;;1.10;;
40022;SDS011;25713;-35.352;149.036;2023-02-01T07:49:17;1.00;;;0.90;;
40022;SDS011;25713;-35.352;149.036;2023-02-01T07:51:48;1.27;;;1.17;;
40022;SDS011;25713;-35.352;149.036;2023-02-01T07:54:18;1.20;;;1.10;;
40022;SDS011;25713;-35.352;149.036;2023-02-01T07:56:47;2.58;;;1.10;;
40022;SDS011;25713;-35.352;149.036;2023-02-01T07:59:17;2.20;;;1.10;;
40022;SDS011;25713;-35.352;149.036;2023-02-01T08:01:46;2.22;;;1.10;;
40022;SDS011;25713;-35.352;149.036;2023-02-01T08:04:15;1.30;;;0.95;;
40022;SDS011;25713;-35.352;149.036;2023-02-01T08:06:47;1.90;;;1.02;;
40022;SDS011;25713;-35.352;149.036;2023-02-01T08:09:16;1.20;;;1.10;;
40022;SDS011;25713;-35.352;149.036;2023-02-01T08:11:46;2.08;;;0.95;;
40022;SDS011;25713;-35.352;149.036;2023-02-01T08:14:15;1.10;;;0.82;;
40022;SDS011;25713;-35.352;149.036;2023-02-01T08:16:45;1.10;;;0.93;;
40022;SDS011;25713;-35.352;149.036;2023-02-01T08:19:15;1.00;;;0.90;;
40022;SDS011;25713;-35.352;149.036;2023-02-01T08:21:44;1.85;;;1.10;;
40022;SDS011;25713;-35.352;149.036;2023-02-01T08:24:15;0.90;;;0.88;;
40022;SDS011;25713;-35.352;149.036;2023-02-01T08:26:45;1.08;;;0.80;;
40022;SDS011;25713;-35.352;149.036;2023-02-01T08:29:15;1.40;;;0.90;;
40022;SDS011;25713;-35.352;149.036;2023-02-01T08:31:44;0.90;;;0.88;;
40022;SDS011;25713;-35.352;149.036;2023-02-01T08:34:14;1.00;;;0.70;;
40022;SDS011;25713;-35.352;149.036;2023-02-01T08:36:43;4.10;;;0.90;;
40022;SDS011;25713;-35.352;149.036;2023-02-01T08:39:15;0.80;;;0.80;;
40022;SDS011;25713;-35.352;149.036;2023-02-01T08:41:45;1.35;;;0.80;;
40022;SDS011;25713;-35.352;149.036;2023-02-01T08:44:14;0.93;;;0.80;;
40022;SDS011;25713;-35.352;149.036;2023-02-01T08:46:44;1.20;;;0.80;;
40022;SDS011;25713;-35.352;149.036;2023-02-01T08:49:13;0.90;;;0.80;;
40022;SDS011;25713;-35.352;149.036;2023-02-01T08:51:42;1.20;;;0.90;;
40022;SDS011;25713;-35.352;149.036;2023-02-01T08:54:12;0.85;;;0.60;;
40022;SDS011;25713;-35.352;149.036;2023-02-01T08:56:43;2.13;;;0.80;;
40022;SDS011;25713;-35.352;149.036;2023-02-01T08:59:13;0.88;;;0.60;;
40022;SDS011;25713;-35.352;149.036;2023-02-01T09:01:42;0.70;;;0.70;;
40022;SDS011;25713;-35.352;149.036;2023-02-01T09:04:11;1.33;;;0.90;;
40022;SDS011;25713;-35.352;149.036;2023-02-01T09:06:41;0.80;;;0.80;;
40022;SDS011;25713;-35.352;149.036;2023-02-01T09:09:11;1.00;;;0.90;;
40022;SDS011;25713;-35.352;149.036;2023-02-01T09:11:42;0.80;;;0.70;;
40022;SDS011;25713;-35.352;149.036;2023-02-01T09:14:12;1.95;;;0.80;;
40022;SDS011;25713;-35.352;149.036;2023-02-01T09:16:41;2.38;;;0.63;;
40022;SDS011;25713;-35.352;149.036;2023-02-01T09:19:11;2.75;;;0.90;;
40022;SDS011;25713;-35.352;149.036;2023-02-01T09:21:41;3.80;;;0.98;;
40022;SDS011;25713;-35.352;149.036;2023-02-01T09:24:11;2.47;;;0.80;;
40022;SDS011;25713;-35.352;149.036;2023-02-01T09:26:43;1.48;;;0.80;;
40022;SDS011;25713;-35.352;149.036;2023-02-01T09:29:12;1.33;;;1.10;;
40022;SDS011;25713;-35.352;149.036;2023-02-01T09:31:42;2.40;;;1.30;;
40022;SDS011;25713;-35.352;149.036;2023-02-01T09:34:12;2.33;;;1.73;;
40022;SDS011;25713;-35.352;149.036;2023-02-01T09:36:41;3.17;;;1.40;;
40022;SDS011;25713;-35.352;149.036;2023-02-01T09:39:11;1.35;;;1.25;;
40022;SDS011;25713;-35.352;149.036;2023-02-01T09:41:45;1.83;;;1.00;;
40022;SDS011;25713;-35.352;149.036;2023-02-01T09:44:30;0.80;;;0.80;;
40022;SDS011;25713;-35.352;149.036;2023-02-01T09:47:18;0.80;;;0.80;;
40022;SDS011;25713;-35.352;149.036;2023-02-01T09:49:51;3.08;;;1.02;;
40022;SDS011;25713;-35.352;149.036;2023-02-01T09:52:25;1.00;;;0.90;;
40022;SDS011;25713;-35.352;149.036;2023-02-01T09:54:59;1.05;;;0.80;;
40022;SDS011;25713;-35.352;149.036;2023-02-01T09:57:37;1.05;;;0.88;;
40022;SDS011;25713;-35.352;149.036;2023-02-01T10:00:14;1.58;;;1.00;;
40022;SDS011;25713;-35.352;149.036;2023-02-01T10:02:47;1.25;;;0.88;;
40022;SDS011;25713;-35.352;149.036;2023-02-01T10:05:18;1.00;;;0.80;;
40022;SDS011;25713;-35.352;149.036;2023-02-01T10:07:59;1.42;;;0.90;;
40022;SDS011;25713;-35.352;149.036;2023-02-01T10:10:34;1.05;;;0.93;;
40022;SDS011;25713;-35.352;149.036;2023-02-01T10:13:18;0.93;;;0.73;;
40022;SDS011;25713;-35.352;149.036;2023-02-01T10:16:13;3.20;;;0.80;;
40022;SDS011;25713;-35.352;149.036;2023-02-01T10:18:57;1.13;;;0.90;;
40022;SDS011;25713;-35.352;149.036;2023-02-01T10:21:47;1.00;;;0.90;;
40022;SDS011;25713;-35.352;149.036;2023-02-01T10:24:32;1.55;;;0.90;;
40022;SDS011;25713;-35.352;149.036;2023-02-01T10:27:12;2.25;;;1.10;;
40022;SDS011;25713;-35.352;149.036;2023-02-01T10:29:48;1.27;;;0.90;;
40022;SDS011;25713;-35.352;149.036;2023-02-01T10:32:22;0.80;;;0.77;;
40022;SDS011;25713;-35.352;149.036;2023-02-01T10:34:57;1.48;;;0.90;;
40022;SDS011;25713;-35.352;149.036;2023-02-01T10:37:28;0.73;;;0.73;;
40022;SDS011;25713;-35.352;149.036;2023-02-01T10:39:59;1.55;;;0.85;;
40022;SDS011;25713;-35.352;149.036;2023-02-01T10:42:33;1.42;;;1.00;;
40022;SDS011;25713;-35.352;149.036;2023-02-01T10:45:04;0.93;;;0.73;;
40022;SDS011;25713;-35.352;149.036;2023-02-01T10:47:41;1.00;;;0.90;;
40022;SDS011;25713;-35.352;149.036;2023-02-01T10:50:16;1.55;;;1.00;;
40022;SDS011;25713;-35.352;149.036;2023-02-01T10:52:53;1.17;;;0.90;;
40022;SDS011;25713;-35.352;149.036;2023-02-01T10:55:32;1.27;;;0.90;;
40022;SDS011;25713;-35.352;149.036;2023-02-01T10:58:04;1.70;;;0.90;;
40022;SDS011;25713;-35.352;149.036;2023-02-01T11:00:38;0.98;;;0.80;;
40022;SDS011;25713;-35.352;149.036;2023-02-01T11:06:11;2.05;;;0.93;;
40022;SDS011;25713;-35.352;149.036;2023-02-01T11:08:50;1.00;;;0.90;;
40022;SDS011;25713;-35.352;149.036;2023-02-01T11:11:20;1.25;;;0.80;;
40022;SDS011;25713;-35.352;149.036;2023-02-01T11:13:54;1.10;;;0.90;;
40022;SDS011;25713;-35.352;149.036;2023-02-01T11:16:33;1.45;;;1.00;;
40022;SDS011;25713;-35.352;149.036;2023-02-01T11:19:04;0.88;;;0.88;;
40022;SDS011;25713;-35.352;149.036;2023-02-01T11:21:33;0.80;;;0.80;;
40022;SDS011;25713;-35.352;149.036;2023-02-01T11:24:03;1.10;;;1.00;;
40022;SDS011;25713;-35.352;149.036;2023-02-01T11:26:35;1.37;;;0.90;;
40022;SDS011;25713;-35.352;149.036;2023-02-01T11:29:10;1.55;;;0.82;;
40022;SDS011;25713;-35.352;149.036;2023-02-01T11:31:43;1.10;;;0.80;;
40022;SDS011;25713;-35.352;149.036;2023-02-01T11:34:14;1.83;;;0.75;;
40022;SDS011;25713;-35.352;149.036;2023-02-01T11:36:45;0.80;;;0.80;;
40022;SDS011;25713;-35.352;149.036;2023-02-01T11:39:23;1.00;;;0.90;;
40022;SDS011;25713;-35.352;149.036;2023-02-01T11:42:00;1.10;;;1.00;;
40022;SDS011;25713;-35.352;149.036;2023-02-01T11:44:34;1.05;;;1.00;;
40022;SDS011;25713;-35.352;149.036;2023-02-01T11:47:27;1.20;;;1.10;;
40022;SDS011;25713;-35.352;149.036;2023-02-01T11:49:57;0.83;;;0.83;;
40022;SDS011;25713;-35.352;149.036;2023-02-01T11:52:33;1.95;;;1.08;;
40022;SDS011;25713;-35.352;149.036;2023-02-01T11:55:15;1.58;;;0.90;;
40022;SDS011;25713;-35.352;149.036;2023-02-01T11:58:03;1.30;;;1.00;;
40022;SDS011;25713;-35.352;149.036;2023-02-01T12:00:52;2.15;;;1.08;;
40022;SDS011;25713;-35.352;149.036;2023-02-01T12:03:56;2.40;;;1.05;;
40022;SDS011;25713;-35.352;149.036;2023-02-01T12:06:53;1.15;;;0.77;;
40022;SDS011;25713;-35.352;149.036;2023-02-01T12:09:31;1.15;;;1.02;;
40022;SDS011;25713;-35.352;149.036;2023-02-01T12:12:16;1.10;;;1.00;;
40022;SDS011;25713;-35.352;149.036;2023-02-01T12:15:12;1.10;;;1.00;;
40022;SDS011;25713;-35.352;149.036;2023-02-01T12:17:56;1.33;;;1.23;;
40022;SDS011;25713;-35.352;149.036;2023-02-01T12:20:50;1.85;;;1.27;;
40022;SDS011;25713;-35.352;149.036;2023-02-01T12:23:50;1.77;;;1.30;;
40022;SDS011;25713;-35.352;149.036;2023-02-01T12:29:24;2.22;;;1.20;;
40022;SDS011;25713;-35.352;149.036;2023-02-01T12:32:20;2.75;;;1.30;;
40022;SDS011;25713;-35.352;149.036;2023-02-01T12:35:09;1.67;;;1.50;;
40022;SDS011;25713;-35.352;149.036;2023-02-01T12:37:51;1.77;;;1.35;;
40022;SDS011;25713;-35.352;149.036;2023-02-01T12:40:33;1.60;;;1.50;;
40022;SDS011;25713;-35.352;149.036;2023-02-01T12:43:11;2.10;;;1.40;;
40022;SDS011;25713;-35.352;149.036;2023-02-01T12:45:45;1.42;;;1.20;;
40022;SDS011;25713;-35.352;149.036;2023-02-01T12:48:24;2.53;;;1.23;;
40022;SDS011;25713;-35.352;149.036;2023-02-01T12:50:56;2.97;;;1.48;;
40022;SDS011;25713;-35.352;149.036;2023-02-01T12:53:34;1.50;;;1.40;;
40022;SDS011;25713;-35.352;149.036;2023-02-01T12:56:14;1.92;;;1.30;;
40022;SDS011;25713;-35.352;149.036;2023-02-01T12:58:49;3.00;;;1.58;;
40022;SDS011;25713;-35.352;149.036;2023-02-01T13:01:21;1.87;;;1.40;;
40022;SDS011;25713;-35.352;149.036;2023-02-01T13:03:57;2.00;;;1.63;;
40022;SDS011;25713;-35.352;149.036;2023-02-01T13:06:31;2.30;;;1.65;;
40022;SDS011;25713;-35.352;149.036;2023-02-01T13:09:09;1.70;;;1.38;;
40022;SDS011;25713;-35.352;149.036;2023-02-01T13:11:44;3.45;;;1.38;;
40022;SDS011;25713;-35.352;149.036;2023-02-01T13:14:19;2.67;;;1.83;;
40022;SDS011;25713;-35.352;149.036;2023-02-01T13:16:59;2.75;;;1.70;;
40022;SDS011;25713;-35.352;149.036;2023-02-01T13:19:33;2.38;;;1.42;;
40022;SDS011;25713;-35.352;149.036;2023-02-01T13:22:10;2.28;;;1.55;;
40022;SDS011;25713;-35.352;149.036;2023-02-01T13:24:45;2.10;;;1.40;;
40022;SDS011;25713;-35.352;149.036;2023-02-01T13:27:18;1.38;;;1.27;;
40022;SDS011;25713;-35.352;149.036;2023-02-01T13:29:50;4.13;;;1.60;;
40022;SDS011;25713;-35.352;149.036;2023-02-01T13:32:34;2.78;;;1.65;;
40022;SDS011;25713;-35.352;149.036;2023-02-01T13:38:28;3.65;;;1.70;;
40022;SDS011;25713;-35.352;149.036;2023-02-01T13:41:27;2.75;;;1.67;;
40022;SDS011;25713;-35.352;149.036;2023-02-01T13:43:58;2.28;;;1.60;;
40022;SDS011;25713;-35.352;149.036;2023-02-01T13:46:30;3.20;;;1.60;;
40022;SDS011;25713;-35.352;149.036;2023-02-01T13:49:13;3.58;;;1.40;;
40022;SDS011;25713;-35.352;149.036;2023-02-01T13:51:48;2.10;;;1.65;;
40022;SDS011;25713;-35.352;149.036;2023-02-01T13:54:26;4.88;;;1.75;;
40022;SDS011;25713;-35.352;149.036;2023-02-01T13:57:00;2.53;;;1.70;;
40022;SDS011;25713;-35.352;149.036;2023-02-01T13:59:48;3.55;;;1.90;;
40022;SDS011;25713;-35.352;149.036;2023-02-01T14:02:46;2.95;;;1.70;;
40022;SDS011;25713;-35.352;149.036;2023-02-01T14:09:11;2.55;;;1.73;;
40022;SDS011;25713;-35.352;149.036;2023-02-01T14:11:43;2.85;;;1.58;;
40022;SDS011;25713;-35.352;149.036;2023-02-01T14:23:23;2.17;;;1.80;;
40022;SDS011;25713;-35.352;149.036;2023-02-01T14:26:09;1.77;;;1.50;;
40022;SDS011;25713;-35.352;149.036;2023-02-01T14:28:41;2.72;;;1.77;;
40022;SDS011;25713;-35.352;149.036;2023-02-01T14:31:43;2.75;;;1.80;;
40022;SDS011;25713;-35.352;149.036;2023-02-01T14:34:20;1.73;;;1.50;;
40022;SDS011;25713;-35.352;149.036;2023-02-01T14:36:55;2.45;;;1.67;;
40022;SDS011;25713;-35.352;149.036;2023-02-01T14:39:30;4.88;;;1.80;;
40022;SDS011;25713;-35.352;149.036;2023-02-01T14:42:14;4.63;;;1.80;;
40022;SDS011;25713;-35.352;149.036;2023-02-01T14:44:52;1.98;;;1.65;;
40022;SDS011;25713;-35.352;149.036;2023-02-01T14:47:28;2.97;;;1.65;;
40022;SDS011;25713;-35.352;149.036;2023-02-01T15:52:39;3.03;;;1.90;;
40022;SDS011;25713;-35.352;149.036;2023-02-01T15:55:18;3.03;;;1.70;;
40022;SDS011;25713;-35.352;149.036;2023-02-01T15:57:49;4.07;;;1.73;;
40022;SDS011;25713;-35.352;149.036;2023-02-01T16:00:21;2.10;;;1.67;;
40022;SDS011;25713;-35.352;149.036;2023-02-01T16:02:53;2.20;;;1.70;;
40022;SDS011;25713;-35.352;149.036;2023-02-01T16:05:28;1.80;;;1.65;;
40022;SDS011;25713;-35.352;149.036;2023-02-01T16:08:03;2.47;;;1.88;;
40022;SDS011;25713;-35.352;149.036;2023-02-01T16:10:38;4.15;;;1.90;;
40022;SDS011;25713;-35.352;149.036;2023-02-01T16:13:09;3.63;;;2.10;;
40022;SDS011;25713;-35.352;149.036;2023-02-01T16:15:39;1.73;;;1.58;;
40022;SDS011;25713;-35.352;149.036;2023-02-01T16:18:09;1.80;;;1.63;;
40022;SDS011;25713;-35.352;149.036;2023-02-01T16:20:39;3.97;;;2.15;;
40022;SDS011;25713;-35.352;149.036;2023-02-01T16:23:12;2.88;;;1.83;;
40022;SDS011;25713;-35.352;149.036;2023-02-01T16:25:41;2.72;;;1.70;;